createdAt,value
2017-10-18T00:02:26.552Z,88.30
2017-10-18T00:04:54.143Z,88.33
2017-10-18T00:07:21.779Z,88.83
2017-10-18T00:09:49.378Z,89.05
2017-10-18T00:12:17.014Z,88.93
2017-10-18T00:14:44.623Z,88.67
2017-10-18T00:17:12.269Z,88.43
2017-10-18T00:19:39.894Z,88.20
2017-10-18T00:22:07.537Z,88.51
2017-10-18T00:24:35.147Z,88.73
2017-10-18T00:27:02.785Z,88.77
2017-10-18T00:29:30.378Z,88.75
2017-10-18T00:31:58.009Z,89.03
2017-10-18T00:34:25.622Z,89.19
2017-10-18T00:36:53.314Z,88.97
2017-10-18T00:39:21.666Z,89.16
2017-10-18T00:41:49.302Z,89.22
2017-10-18T00:44:16.914Z,89.08
2017-10-18T00:46:44.549Z,89.03
2017-10-18T00:49:12.154Z,88.81
2017-10-18T00:51:39.828Z,88.62
2017-10-18T00:54:07.434Z,88.32
2017-10-18T00:56:35.055Z,88.21
2017-10-18T00:59:02.699Z,88.10
2017-10-18T01:01:30.305Z,87.95
2017-10-18T01:03:57.934Z,87.89
2017-10-18T01:06:25.542Z,87.55
2017-10-18T01:08:53.367Z,87.44
2017-10-18T01:11:21.264Z,87.49
2017-10-18T01:13:49.063Z,88.08
2017-10-18T01:16:16.958Z,88.55
2017-10-18T01:18:44.613Z,88.82
2017-10-18T01:21:12.225Z,89.04
2017-10-18T01:23:39.913Z,89.18
2017-10-18T01:26:07.511Z,89.48
2017-10-18T01:28:35.355Z,89.61
2017-10-18T01:31:03.352Z,89.85
2017-10-18T01:33:31.521Z,89.58
2017-10-18T01:35:59.531Z,89.58
2017-10-18T01:38:27.341Z,89.94
2017-10-18T01:40:55.263Z,90.23
2017-10-18T01:43:23.074Z,90.13
2017-10-18T01:45:50.833Z,89.95
2017-10-18T01:48:18.427Z,89.90
2017-10-18T01:50:46.063Z,89.96
2017-10-18T01:53:13.666Z,89.81
2017-10-18T01:55:41.331Z,89.77
2017-10-18T01:58:08.923Z,89.96
2017-10-18T02:00:36.559Z,89.55
2017-10-18T02:03:04.162Z,89.36
2017-10-18T02:05:31.819Z,89.17
2017-10-18T02:07:59.417Z,89.19
2017-10-18T02:10:27.018Z,89.31
2017-10-18T02:12:54.647Z,89.19
2017-10-18T02:15:22.238Z,89.33
2017-10-18T02:17:49.883Z,89.27
2017-10-18T02:20:17.490Z,89.15
2017-10-18T02:22:45.131Z,89.37
2017-10-18T02:25:12.747Z,89.86
2017-10-18T02:27:40.616Z,90.13
2017-10-18T02:30:09.679Z,90.36
2017-10-18T02:32:37.588Z,90.67
2017-10-18T02:35:05.371Z,91.11
2017-10-18T02:37:33.174Z,91.22
2017-10-18T02:40:00.836Z,91.25
2017-10-18T02:42:29.621Z,91.56
2017-10-18T02:47:30.059Z,91.35
2017-10-18T02:49:58.073Z,91.06
2017-10-18T02:52:26.675Z,90.72
2017-10-18T02:54:54.494Z,90.12
2017-10-18T02:57:22.339Z,90.01
2017-10-18T02:59:50.154Z,89.85
2017-10-18T03:02:17.927Z,89.32
2017-10-18T03:04:45.793Z,88.95
2017-10-18T03:07:15.582Z,88.87
2017-10-18T03:09:43.176Z,89.17
2017-10-18T03:12:10.779Z,89.49
2017-10-18T03:14:38.422Z,89.62
2017-10-18T03:17:06.032Z,90.63
2017-10-18T03:19:33.663Z,92.32
2017-10-18T03:22:01.311Z,92.73
2017-10-18T03:24:28.935Z,92.87
2017-10-18T03:26:56.532Z,92.57
2017-10-18T03:29:24.171Z,92.18
2017-10-18T03:31:51.770Z,91.85
2017-10-18T03:34:19.398Z,91.28
2017-10-18T03:36:47.001Z,90.81
2017-10-18T03:39:14.684Z,90.14
2017-10-18T03:41:42.293Z,89.93
2017-10-18T03:44:09.921Z,89.73
2017-10-18T03:46:37.526Z,89.55
2017-10-18T03:49:05.203Z,89.04
2017-10-18T03:51:32.809Z,89.13
2017-10-18T03:54:00.448Z,89.09
2017-10-18T03:56:28.047Z,89.08
2017-10-18T03:58:55.658Z,89.12
2017-10-18T04:01:23.330Z,88.87
2017-10-18T04:03:50.987Z,88.49
2017-10-18T04:06:18.764Z,88.26
2017-10-18T04:08:46.436Z,87.96
2017-10-18T04:11:14.046Z,87.97
2017-10-18T04:13:41.740Z,88.42
2017-10-18T04:16:09.375Z,88.60
2017-10-18T04:18:36.980Z,88.55
2017-10-18T04:21:04.636Z,88.71
2017-10-18T04:23:32.226Z,88.79
2017-10-18T04:25:59.870Z,89.02
2017-10-18T04:31:10.873Z,89.56
2017-10-18T04:33:38.696Z,89.93
2017-10-18T04:36:06.490Z,91.89
2017-10-18T04:38:34.313Z,91.80
2017-10-18T04:41:02.128Z,91.47
2017-10-18T04:43:29.899Z,90.31
2017-10-18T04:45:57.741Z,90.03
2017-10-18T04:48:25.344Z,89.70
2017-10-18T04:50:52.969Z,89.22
2017-10-18T04:53:20.574Z,88.41
2017-10-18T04:55:48.232Z,88.22
2017-10-18T04:58:15.840Z,88.91
2017-10-18T05:00:43.478Z,89.42
2017-10-18T05:03:11.080Z,89.96
2017-10-18T05:05:38.846Z,90.23
2017-10-18T05:08:09.202Z,90.01
2017-10-18T05:10:37.093Z,90.09
2017-10-18T05:13:05.295Z,90.26
2017-10-18T05:15:33.172Z,90.07
2017-10-18T05:18:00.907Z,89.29
2017-10-18T05:20:28.546Z,89.13
2017-10-18T05:22:56.254Z,89.07
2017-10-18T05:25:24.071Z,88.27
2017-10-18T05:27:52.382Z,88.25
2017-10-18T05:30:21.032Z,88.81
2017-10-18T05:32:48.890Z,89.15
2017-10-18T05:35:32.327Z,89.17
2017-10-18T05:38:06.747Z,89.14
2017-10-18T05:40:34.907Z,89.32
2017-10-18T05:43:02.831Z,89.66
2017-10-18T05:45:30.607Z,89.82
2017-10-18T05:47:58.519Z,89.41
2017-10-18T05:50:28.761Z,88.52
2017-10-18T05:52:57.405Z,88.59
2017-10-18T05:55:25.728Z,89.23
2017-10-18T05:58:09.398Z,89.45
2017-10-18T06:00:37.175Z,89.44
2017-10-18T06:03:05.436Z,89.51
2017-10-18T06:05:33.168Z,90.35
2017-10-18T06:08:00.956Z,91.16
2017-10-18T06:10:28.778Z,91.16
2017-10-18T06:12:56.633Z,90.70
2017-10-18T06:15:24.583Z,90.45
2017-10-18T06:17:54.533Z,90.34
2017-10-18T06:20:22.466Z,89.83
2017-10-18T06:22:50.389Z,89.97
2017-10-18T06:25:18.148Z,90.23
2017-10-18T06:27:45.917Z,90.57
2017-10-18T06:30:14.198Z,90.87
2017-10-18T06:32:42.804Z,91.35
2017-10-18T06:35:13.496Z,91.86
2017-10-18T06:37:41.988Z,91.69
2017-10-18T06:40:09.607Z,91.71
2017-10-18T06:42:38.217Z,92.04
2017-10-18T06:45:06.107Z,92.11
2017-10-18T06:47:34.065Z,92.17
2017-10-18T06:50:01.703Z,92.20
2017-10-18T06:52:29.455Z,92.46
2017-10-18T06:54:57.201Z,92.37
2017-10-18T06:57:24.835Z,92.65
2017-10-18T06:59:52.452Z,92.98
2017-10-18T07:02:20.098Z,92.98
2017-10-18T07:04:47.815Z,92.97
2017-10-18T07:07:15.467Z,94.31
2017-10-18T07:09:43.087Z,94.66
2017-10-18T07:12:10.782Z,95.06
2017-10-18T07:14:38.409Z,95.74
2017-10-18T07:17:06.003Z,96.02
2017-10-18T07:19:33.627Z,96.06
2017-10-18T07:22:01.231Z,96.08
2017-10-18T07:24:28.892Z,96.01
2017-10-18T07:26:56.529Z,95.96
2017-10-18T07:29:24.158Z,96.11
2017-10-18T07:31:51.778Z,95.96
2017-10-18T07:34:19.442Z,96.03
2017-10-18T07:36:47.090Z,95.94
2017-10-18T07:39:14.735Z,95.69
2017-10-18T07:41:42.336Z,95.56
2017-10-18T07:44:09.979Z,95.39
2017-10-18T07:46:37.587Z,95.33
2017-10-18T07:49:05.215Z,95.13
2017-10-18T07:51:32.835Z,95.00
2017-10-18T07:54:00.515Z,94.94
2017-10-18T07:56:28.102Z,94.89
2017-10-18T07:58:55.755Z,94.85
2017-10-18T08:01:23.358Z,94.69
2017-10-18T08:03:51.155Z,94.52
2017-10-18T08:06:18.750Z,94.67
2017-10-18T08:08:46.525Z,94.74
2017-10-18T08:11:14.131Z,94.85
2017-10-18T08:13:41.787Z,94.87
2017-10-18T08:16:09.423Z,94.30
2017-10-18T08:18:37.116Z,94.39
2017-10-18T08:21:04.706Z,93.51
2017-10-18T08:23:32.347Z,93.42
2017-10-18T08:25:59.958Z,92.88
2017-10-18T08:28:27.709Z,93.00
2017-10-18T08:30:55.329Z,92.15
2017-10-18T08:33:22.966Z,92.29
2017-10-18T08:35:50.570Z,91.08
2017-10-18T08:38:18.199Z,91.39
2017-10-18T08:40:45.794Z,90.69
2017-10-18T08:43:13.435Z,90.53
2017-10-18T08:45:41.039Z,89.75
2017-10-18T08:48:08.791Z,89.72
2017-10-18T08:50:36.391Z,89.03
2017-10-18T08:53:03.999Z,89.41
2017-10-18T08:55:31.616Z,88.63
2017-10-18T08:57:59.267Z,88.41
2017-10-18T09:00:26.887Z,87.57
2017-10-18T09:02:54.495Z,87.14
2017-10-18T09:05:22.154Z,86.62
2017-10-18T09:07:49.743Z,85.27
2017-10-18T09:10:17.378Z,84.88
2017-10-18T09:12:44.998Z,85.23
2017-10-18T09:15:12.635Z,84.58
2017-10-18T09:17:40.228Z,82.93
2017-10-18T09:20:07.884Z,82.36
2017-10-18T09:22:35.486Z,82.16
2017-10-18T09:25:03.115Z,82.69
2017-10-18T09:27:30.732Z,80.86
2017-10-18T09:29:58.374Z,79.57
2017-10-18T09:32:25.971Z,78.43
2017-10-18T09:34:53.609Z,78.81
2017-10-18T09:37:21.215Z,77.45
2017-10-18T09:39:48.864Z,77.01
2017-10-18T09:42:16.451Z,76.05
2017-10-18T09:44:44.128Z,75.46
2017-10-18T09:47:11.726Z,74.91
2017-10-18T09:49:39.495Z,74.15
2017-10-18T09:52:07.105Z,73.30
2017-10-18T09:54:34.724Z,71.88
2017-10-18T09:57:02.362Z,72.06
2017-10-18T09:59:29.975Z,71.17
2017-10-18T10:01:57.615Z,70.98
2017-10-18T10:04:25.231Z,71.19
2017-10-18T10:06:52.859Z,70.85
2017-10-18T10:09:20.874Z,71.17
2017-10-18T10:11:48.502Z,70.86
2017-10-18T10:14:16.091Z,70.08
2017-10-18T10:16:43.726Z,70.17
2017-10-18T10:19:11.337Z,69.90
2017-10-18T10:21:38.962Z,68.94
2017-10-18T10:24:06.610Z,67.31
2017-10-18T10:26:34.242Z,67.23
2017-10-18T10:29:01.838Z,67.14
2017-10-18T10:31:29.435Z,64.99
2017-10-18T10:33:57.068Z,63.59
2017-10-18T10:36:24.662Z,62.68
2017-10-18T10:38:52.510Z,63.67
2017-10-18T10:41:20.105Z,62.74
2017-10-18T10:43:47.714Z,62.34
2017-10-18T10:46:15.310Z,61.50
2017-10-18T10:48:42.939Z,61.40
2017-10-18T10:51:10.551Z,61.62
2017-10-18T10:53:38.203Z,60.27
2017-10-18T10:56:05.800Z,60.17
2017-10-18T10:58:33.434Z,59.61
2017-10-18T11:01:01.043Z,59.08
2017-10-18T11:03:28.682Z,58.67
2017-10-18T11:05:56.271Z,59.27
2017-10-18T11:08:24.003Z,57.20
2017-10-18T11:10:51.615Z,57.96
2017-10-18T11:13:19.262Z,56.86
2017-10-18T11:15:46.875Z,57.22
2017-10-18T11:18:14.490Z,56.20
2017-10-18T11:20:42.118Z,56.30
2017-10-18T11:23:09.745Z,56.61
2017-10-18T11:25:37.343Z,57.56
2017-10-18T11:28:04.970Z,56.70
2017-10-18T11:30:32.572Z,55.40
2017-10-18T11:33:00.210Z,56.30
2017-10-18T11:35:27.814Z,55.69
2017-10-18T11:37:55.496Z,54.63
2017-10-18T11:40:23.139Z,54.22
2017-10-18T11:42:50.783Z,54.88
2017-10-18T11:45:18.366Z,54.76
2017-10-18T11:47:46.011Z,55.05
2017-10-18T11:50:13.610Z,55.06
2017-10-18T11:52:41.204Z,54.54
2017-10-18T11:55:08.862Z,54.24
2017-10-18T11:57:36.459Z,54.46
2017-10-18T12:00:04.090Z,53.12
2017-10-18T12:02:31.701Z,53.15
2017-10-18T12:04:59.330Z,52.78
2017-10-18T12:07:26.935Z,52.52
2017-10-18T12:09:54.563Z,51.38
2017-10-18T12:12:22.181Z,51.71
2017-10-18T12:14:49.846Z,52.50
2017-10-18T12:17:17.435Z,51.89
2017-10-18T12:19:45.100Z,51.60
2017-10-18T12:22:12.719Z,50.61
2017-10-18T12:24:40.311Z,49.46
2017-10-18T12:27:07.938Z,49.95
2017-10-18T12:29:35.531Z,49.87
2017-10-18T12:32:03.151Z,48.85
2017-10-18T12:34:30.743Z,50.01
2017-10-18T12:36:58.376Z,50.04
2017-10-18T12:39:25.957Z,50.15
2017-10-18T12:41:53.689Z,48.96
2017-10-18T12:44:21.284Z,49.41
2017-10-18T12:46:48.915Z,49.84
2017-10-18T12:49:16.507Z,49.97
2017-10-18T12:51:44.123Z,49.75
2017-10-18T12:54:11.722Z,49.29
2017-10-18T12:56:39.383Z,48.98
2017-10-18T12:59:06.978Z,48.60
2017-10-18T13:01:34.613Z,49.08
2017-10-18T13:04:02.252Z,49.80
2017-10-18T13:06:29.888Z,48.61
2017-10-18T13:08:57.494Z,49.01
2017-10-18T13:11:25.211Z,48.04
2017-10-18T13:13:52.826Z,48.53
2017-10-18T13:16:20.450Z,48.93
2017-10-18T13:18:48.046Z,47.68
2017-10-18T13:21:15.667Z,48.43
2017-10-18T13:23:43.262Z,47.21
2017-10-18T13:26:10.906Z,47.03
2017-10-18T13:28:38.519Z,47.80
2017-10-18T13:31:06.133Z,47.86
2017-10-18T13:33:33.761Z,47.92
2017-10-18T13:36:01.380Z,48.27
2017-10-18T13:38:29.030Z,48.02
2017-10-18T13:40:56.628Z,47.54
2017-10-18T13:43:24.274Z,46.85
2017-10-18T13:45:51.837Z,48.06
2017-10-18T13:48:19.467Z,47.41
2017-10-18T13:50:47.098Z,46.74
2017-10-18T13:53:14.698Z,46.90
2017-10-18T13:55:42.322Z,45.96
2017-10-18T13:58:10.002Z,47.19
2017-10-18T14:00:37.638Z,47.13
2017-10-18T14:03:05.266Z,47.79
2017-10-18T14:05:32.912Z,47.89
2017-10-18T14:08:00.519Z,46.24
2017-10-18T14:10:28.163Z,46.45
2017-10-18T14:12:55.769Z,47.03
2017-10-18T14:15:23.404Z,47.88
2017-10-18T14:17:50.998Z,47.99
2017-10-18T14:20:18.624Z,47.27
2017-10-18T14:22:46.293Z,46.87
2017-10-18T14:25:13.933Z,47.19
2017-10-18T14:27:41.546Z,47.63
2017-10-18T14:30:09.216Z,48.46
2017-10-18T14:32:36.877Z,49.43
2017-10-18T14:35:04.507Z,49.56
2017-10-18T14:37:32.123Z,50.10
2017-10-18T14:39:59.756Z,50.63
2017-10-18T14:42:27.391Z,50.38
2017-10-18T14:44:55.027Z,50.28
2017-10-18T14:47:22.637Z,50.83
2017-10-18T14:49:50.308Z,50.94
2017-10-18T14:52:17.917Z,50.97
2017-10-18T14:54:45.551Z,51.32
2017-10-18T14:57:13.152Z,52.28
2017-10-18T14:59:40.775Z,52.58
2017-10-18T15:02:08.382Z,53.07
2017-10-18T15:04:36.019Z,53.29
2017-10-18T15:07:03.660Z,53.88
2017-10-18T15:09:31.358Z,54.30
2017-10-18T15:11:58.984Z,54.57
2017-10-18T15:14:26.611Z,54.89
2017-10-18T15:16:54.259Z,55.57
2017-10-18T15:19:21.850Z,56.10
2017-10-18T15:21:49.459Z,56.92
2017-10-18T15:24:17.109Z,57.54
2017-10-18T15:26:44.707Z,57.79
2017-10-18T15:29:12.343Z,58.37
2017-10-18T15:31:39.967Z,58.55
2017-10-18T15:34:07.609Z,58.25
2017-10-18T15:36:35.229Z,59.30
2017-10-18T15:39:02.855Z,59.15
2017-10-18T15:41:30.459Z,59.06
2017-10-18T15:43:58.077Z,59.12
2017-10-18T15:46:25.678Z,59.46
2017-10-18T15:48:53.315Z,60.06
2017-10-18T15:51:20.913Z,60.74
2017-10-18T15:53:48.534Z,61.22
2017-10-18T15:56:16.166Z,60.82
2017-10-18T15:58:43.806Z,61.14
2017-10-18T16:01:11.395Z,60.98
2017-10-18T16:03:39.034Z,61.24
2017-10-18T16:06:06.622Z,60.20
2017-10-18T16:08:34.271Z,60.91
2017-10-18T16:11:01.951Z,60.67
2017-10-18T16:13:29.607Z,61.06
2017-10-18T16:15:57.210Z,61.59
2017-10-18T16:18:24.849Z,61.76
2017-10-18T16:20:52.451Z,62.21
2017-10-18T16:23:20.083Z,62.53
2017-10-18T16:25:47.691Z,63.05
2017-10-18T16:28:15.392Z,63.32
2017-10-18T16:30:43.054Z,63.71
2017-10-18T16:33:10.725Z,64.05
2017-10-18T16:35:38.344Z,64.69
2017-10-18T16:38:05.983Z,65.50
2017-10-18T16:40:33.584Z,67.77
2017-10-18T16:43:01.302Z,68.65
2017-10-18T16:45:28.920Z,67.21
2017-10-18T16:47:56.579Z,67.02
2017-10-18T16:50:24.187Z,66.83
2017-10-18T16:52:51.839Z,65.98
2017-10-18T16:55:19.531Z,67.58
2017-10-18T16:57:47.214Z,67.74
2017-10-18T17:00:14.861Z,68.45
2017-10-18T17:02:42.515Z,67.11
2017-10-18T17:05:10.173Z,68.03
2017-10-18T17:07:37.821Z,69.30
2017-10-18T17:10:05.528Z,70.29
2017-10-18T17:12:33.167Z,71.82
2017-10-18T17:15:00.783Z,72.56
2017-10-18T17:17:28.384Z,72.21
2017-10-18T17:19:56.073Z,71.80
2017-10-18T17:22:25.884Z,70.21
2017-10-18T17:24:53.606Z,71.42
2017-10-18T17:27:21.272Z,71.57
2017-10-18T17:29:48.912Z,70.62
2017-10-18T17:32:16.616Z,70.39
2017-10-18T17:34:44.254Z,70.95
2017-10-18T17:37:11.921Z,71.01
2017-10-18T17:39:39.546Z,69.69
2017-10-18T17:42:07.219Z,70.45
2017-10-18T17:44:34.853Z,69.79
2017-10-18T17:47:02.486Z,70.22
2017-10-18T17:49:30.167Z,71.20
2017-10-18T17:51:57.800Z,71.50
2017-10-18T17:54:25.468Z,71.12
2017-10-18T17:56:54.870Z,71.80
2017-10-18T17:59:22.538Z,71.62
2017-10-18T18:01:50.140Z,71.38
2017-10-18T18:04:17.848Z,69.72
2017-10-18T18:06:45.498Z,70.36
2017-10-18T18:09:13.155Z,70.83
2017-10-18T18:11:40.785Z,71.69
2017-10-18T18:14:08.439Z,72.63
2017-10-18T18:16:36.173Z,73.58
2017-10-18T18:19:03.816Z,73.90
2017-10-18T18:21:31.431Z,74.25
2017-10-18T18:23:59.075Z,74.77
2017-10-18T18:26:26.680Z,74.98
2017-10-18T18:28:54.415Z,75.04
2017-10-18T18:31:22.015Z,75.20
2017-10-18T18:33:49.674Z,75.11
2017-10-18T18:36:17.282Z,75.01
2017-10-18T18:38:44.894Z,74.31
2017-10-18T18:41:12.536Z,74.19
2017-10-18T18:43:40.139Z,74.03
2017-10-18T18:46:07.775Z,74.00
2017-10-18T18:48:35.523Z,74.15
2017-10-18T18:51:03.186Z,74.33
2017-10-18T18:53:30.803Z,74.46
2017-10-18T18:55:58.468Z,74.26
2017-10-18T18:58:26.088Z,74.18
2017-10-18T19:00:53.764Z,74.63
2017-10-18T19:03:21.428Z,74.61
2017-10-18T19:05:49.101Z,74.50
2017-10-18T19:08:16.750Z,74.42
2017-10-18T19:10:44.389Z,74.71
2017-10-18T19:13:12.068Z,74.72
2017-10-18T19:15:39.755Z,75.23
2017-10-18T19:18:07.595Z,75.55
2017-10-18T19:20:35.399Z,75.84
2017-10-18T19:23:03.009Z,75.72
2017-10-18T19:25:30.726Z,75.78
2017-10-18T19:27:59.602Z,75.51
2017-10-18T19:30:27.335Z,75.73
2017-10-18T19:32:55.023Z,75.82
2017-10-18T19:35:22.725Z,75.94
2017-10-18T19:37:50.436Z,76.00
2017-10-18T19:40:18.108Z,76.04
2017-10-18T19:42:45.732Z,76.13
2017-10-18T19:45:13.435Z,76.10
2017-10-18T19:47:41.064Z,76.07
2017-10-18T19:50:08.813Z,76.28
2017-10-18T19:52:36.441Z,83.07
2017-10-18T19:55:04.044Z,82.08
2017-10-18T19:57:31.691Z,80.68
2017-10-18T19:59:59.306Z,80.22
2017-10-18T20:02:26.955Z,75.32
2017-10-18T20:04:54.611Z,74.63
2017-10-18T20:07:22.319Z,75.21
2017-10-18T20:09:50.122Z,75.40
2017-10-18T20:12:17.748Z,75.67
2017-10-18T20:14:46.095Z,76.00
2017-10-18T20:17:14.025Z,76.11
2017-10-18T20:19:41.627Z,76.66
2017-10-18T20:22:09.339Z,76.77
2017-10-18T20:24:36.972Z,76.57
2017-10-18T20:27:04.645Z,76.88
2017-10-18T20:29:32.232Z,77.27
2017-10-18T20:31:59.872Z,77.40
2017-10-18T20:34:27.481Z,77.37
2017-10-18T20:36:55.112Z,77.52
2017-10-18T20:39:22.719Z,77.54
2017-10-18T20:41:50.379Z,77.57
2017-10-18T20:44:17.973Z,77.89
2017-10-18T20:46:45.597Z,77.77
2017-10-18T20:49:13.236Z,78.30
2017-10-18T20:51:40.887Z,78.25
2017-10-18T20:54:08.525Z,77.59
2017-10-18T20:56:36.210Z,77.36
2017-10-18T20:59:03.830Z,77.30
2017-10-18T21:01:31.543Z,77.40
2017-10-18T21:03:59.296Z,77.52
2017-10-18T21:06:27.075Z,77.57
2017-10-18T21:08:54.924Z,77.23
2017-10-18T21:11:22.574Z,77.33
2017-10-18T21:13:50.265Z,77.53
2017-10-18T21:16:17.956Z,77.52
2017-10-18T21:18:45.610Z,77.39
2017-10-18T21:21:13.407Z,77.46
2017-10-18T21:23:41.039Z,77.34
2017-10-18T21:26:08.737Z,76.90
2017-10-18T21:28:36.475Z,77.31
2017-10-18T21:31:04.154Z,77.42
2017-10-18T21:33:31.911Z,77.36
2017-10-18T21:35:59.616Z,77.51
2017-10-18T21:38:27.278Z,77.61
2017-10-18T21:40:54.993Z,77.59
2017-10-18T21:43:22.707Z,78.00
2017-10-18T21:45:50.389Z,77.83
2017-10-18T21:48:18.007Z,78.06
2017-10-18T21:50:45.714Z,78.20
2017-10-18T21:53:13.358Z,78.29
2017-10-18T21:55:40.958Z,78.18
2017-10-18T21:58:08.659Z,78.12
2017-10-18T22:00:36.267Z,78.01
2017-10-18T22:03:03.904Z,78.01
2017-10-18T22:05:31.491Z,77.97
2017-10-18T22:07:59.098Z,78.07
2017-10-18T22:10:26.736Z,78.28
2017-10-18T22:12:54.320Z,78.06
2017-10-18T22:15:21.959Z,78.24
2017-10-18T22:17:49.588Z,78.29
2017-10-18T22:20:17.239Z,78.05
2017-10-18T22:22:44.842Z,78.60
2017-10-18T22:25:12.479Z,78.26
2017-10-18T22:27:40.070Z,78.11
2017-10-18T22:30:07.699Z,78.15
2017-10-18T22:32:35.302Z,78.35
2017-10-18T22:35:02.960Z,78.59
2017-10-18T22:37:30.559Z,78.62
2017-10-18T22:39:58.182Z,78.76
2017-10-18T22:42:25.793Z,78.83
2017-10-18T22:44:53.423Z,78.94
2017-10-18T22:47:21.018Z,79.18
2017-10-18T22:49:48.654Z,79.19
2017-10-18T22:52:16.269Z,79.40
2017-10-18T22:54:43.866Z,79.68
2017-10-18T22:57:11.511Z,79.60
2017-10-18T22:59:39.199Z,79.81
2017-10-18T23:02:06.821Z,79.85
2017-10-18T23:04:34.432Z,79.79
2017-10-18T23:07:02.073Z,79.93
2017-10-18T23:09:29.740Z,80.32
2017-10-18T23:11:57.368Z,80.77
2017-10-18T23:14:25.011Z,81.03
2017-10-18T23:16:52.663Z,81.20
2017-10-18T23:19:20.866Z,81.16
2017-10-18T23:21:48.492Z,80.98
2017-10-18T23:24:16.121Z,81.12
2017-10-18T23:26:43.790Z,81.11
2017-10-18T23:29:11.407Z,81.41
2017-10-18T23:31:39.054Z,81.68
2017-10-18T23:34:06.650Z,82.16
2017-10-18T23:36:34.287Z,82.44
2017-10-18T23:39:01.898Z,82.83
2017-10-18T23:41:29.548Z,82.82
2017-10-18T23:43:57.151Z,82.64
2017-10-18T23:46:24.775Z,82.43
2017-10-18T23:48:52.419Z,82.47
2017-10-18T23:51:20.060Z,82.52
2017-10-18T23:53:47.659Z,82.47
2017-10-18T23:56:15.286Z,82.36
2017-10-18T23:58:42.914Z,82.18
